sensor_id;sensor_type;location;lat;lon;timestamp;P1;durP1;ratioP1;P2;durP2;ratioP2
39896;SDS011;25567;48.276;14.242;2024-03-25T00:00:13;4.82;;;1.70;;
39896;SDS011;25567;48.276;14.242;2024-03-25T00:02:40;8.25;;;1.88;;
39896;SDS011;25567;48.276;14.242;2024-03-25T00:05:07;4.18;;;1.70;;
39896;SDS011;25567;48.276;14.242;2024-03-25T00:07:37;4.13;;;1.67;;
39896;SDS011;25567;48.276;14.242;2024-03-25T00:10:04;6.25;;;1.85;;
39896;SDS011;25567;48.276;14.242;2024-03-25T00:12:31;7.65;;;2.30;;
39896;SDS011;25567;48.276;14.242;2024-03-25T00:14:58;3.65;;;1.65;;
39896;SDS011;25567;48.276;14.242;2024-03-25T00:17:23;5.28;;;2.03;;
39896;SDS011;25567;48.276;14.242;2024-03-25T00:19:49;5.88;;;1.98;;
39896;SDS011;25567;48.276;14.242;2024-03-25T00:22:18;9.00;;;2.13;;
39896;SDS011;25567;48.276;14.242;2024-03-25T00:24:46;3.13;;;1.58;;
39896;SDS011;25567;48.276;14.242;2024-03-25T00:27:12;6.57;;;1.80;;
39896;SDS011;25567;48.276;14.242;2024-03-25T00:29:39;5.03;;;2.00;;
39896;SDS011;25567;48.276;14.242;2024-03-25T00:32:05;4.00;;;1.90;;
39896;SDS011;25567;48.276;14.242;2024-03-25T00:34:32;6.68;;;1.95;;
39896;SDS011;25567;48.276;14.242;2024-03-25T00:36:58;5.38;;;2.08;;
39896;SDS011;25567;48.276;14.242;2024-03-25T00:39:25;5.60;;;2.00;;
39896;SDS011;25567;48.276;14.242;2024-03-25T00:41:51;5.93;;;1.98;;
39896;SDS011;25567;48.276;14.242;2024-03-25T00:44:18;5.35;;;1.88;;
39896;SDS011;25567;48.276;14.242;2024-03-25T00:46:43;3.33;;;1.83;;
39896;SDS011;25567;48.276;14.242;2024-03-25T00:49:10;3.65;;;1.85;;
39896;SDS011;25567;48.276;14.242;2024-03-25T00:51:36;3.17;;;1.70;;
39896;SDS011;25567;48.276;14.242;2024-03-25T00:54:02;4.63;;;1.77;;
39896;SDS011;25567;48.276;14.242;2024-03-25T00:56:29;3.70;;;2.17;;
39896;SDS011;25567;48.276;14.242;2024-03-25T00:58:56;5.90;;;1.90;;
39896;SDS011;25567;48.276;14.242;2024-03-25T01:01:23;2.90;;;1.45;;
39896;SDS011;25567;48.276;14.242;2024-03-25T01:03:50;6.35;;;2.03;;
39896;SDS011;25567;48.276;14.242;2024-03-25T01:06:16;4.63;;;2.05;;
39896;SDS011;25567;48.276;14.242;2024-03-25T01:11:07;6.25;;;1.98;;
39896;SDS011;25567;48.276;14.242;2024-03-25T01:13:33;5.05;;;1.83;;
39896;SDS011;25567;48.276;14.242;2024-03-25T01:15:59;4.82;;;1.98;;
39896;SDS011;25567;48.276;14.242;2024-03-25T01:18:25;5.00;;;2.00;;
39896;SDS011;25567;48.276;14.242;2024-03-25T01:23:16;4.72;;;1.90;;
39896;SDS011;25567;48.276;14.242;2024-03-25T01:25:42;3.22;;;1.77;;
39896;SDS011;25567;48.276;14.242;2024-03-25T01:28:08;4.32;;;2.00;;
39896;SDS011;25567;48.276;14.242;2024-03-25T01:30:33;3.17;;;1.90;;
39896;SDS011;25567;48.276;14.242;2024-03-25T01:33:04;3.42;;;1.70;;
39896;SDS011;25567;48.276;14.242;2024-03-25T01:35:31;4.53;;;1.60;;
39896;SDS011;25567;48.276;14.242;2024-03-25T01:37:57;6.50;;;1.67;;
39896;SDS011;25567;48.276;14.242;2024-03-25T01:40:23;6.60;;;2.25;;
39896;SDS011;25567;48.276;14.242;2024-03-25T01:42:58;2.67;;;1.77;;
39896;SDS011;25567;48.276;14.242;2024-03-25T01:47:52;8.63;;;1.98;;
39896;SDS011;25567;48.276;14.242;2024-03-25T01:50:18;2.28;;;1.55;;
39896;SDS011;25567;48.276;14.242;2024-03-25T01:52:44;6.20;;;1.70;;
39896;SDS011;25567;48.276;14.242;2024-03-25T01:55:12;5.63;;;2.05;;
39896;SDS011;25567;48.276;14.242;2024-03-25T01:57:46;3.20;;;1.55;;
39896;SDS011;25567;48.276;14.242;2024-03-25T02:00:13;6.95;;;1.70;;
39896;SDS011;25567;48.276;14.242;2024-03-25T02:02:42;5.40;;;1.60;;
39896;SDS011;25567;48.276;14.242;2024-03-25T02:05:10;5.82;;;1.33;;
39896;SDS011;25567;48.276;14.242;2024-03-25T02:07:37;3.45;;;1.73;;
39896;SDS011;25567;48.276;14.242;2024-03-25T02:10:04;4.32;;;1.83;;
39896;SDS011;25567;48.276;14.242;2024-03-25T02:12:31;4.57;;;1.55;;
39896;SDS011;25567;48.276;14.242;2024-03-25T02:14:57;7.07;;;1.73;;
39896;SDS011;25567;48.276;14.242;2024-03-25T02:17:24;5.70;;;1.50;;
39896;SDS011;25567;48.276;14.242;2024-03-25T02:19:50;4.45;;;1.25;;
39896;SDS011;25567;48.276;14.242;2024-03-25T02:22:16;3.75;;;1.50;;
39896;SDS011;25567;48.276;14.242;2024-03-25T02:24:44;2.55;;;1.38;;
39896;SDS011;25567;48.276;14.242;2024-03-25T02:27:11;5.75;;;1.40;;
39896;SDS011;25567;48.276;14.242;2024-03-25T02:29:40;4.45;;;1.35;;
39896;SDS011;25567;48.276;14.242;2024-03-25T02:32:07;4.15;;;1.50;;
39896;SDS011;25567;48.276;14.242;2024-03-25T02:34:37;9.05;;;1.77;;
39896;SDS011;25567;48.276;14.242;2024-03-25T02:37:04;4.80;;;1.83;;
39896;SDS011;25567;48.276;14.242;2024-03-25T02:39:30;5.60;;;1.63;;
39896;SDS011;25567;48.276;14.242;2024-03-25T02:41:57;6.20;;;1.63;;
39896;SDS011;25567;48.276;14.242;2024-03-25T02:44:23;4.18;;;1.55;;
39896;SDS011;25567;48.276;14.242;2024-03-25T02:46:49;4.05;;;1.45;;
39896;SDS011;25567;48.276;14.242;2024-03-25T02:49:16;3.30;;;1.73;;
39896;SDS011;25567;48.276;14.242;2024-03-25T02:51:41;6.07;;;2.03;;
39896;SDS011;25567;48.276;14.242;2024-03-25T02:54:07;3.33;;;1.58;;
39896;SDS011;25567;48.276;14.242;2024-03-25T02:58:59;6.93;;;1.80;;
39896;SDS011;25567;48.276;14.242;2024-03-25T03:01:25;3.50;;;1.80;;
39896;SDS011;25567;48.276;14.242;2024-03-25T03:06:17;10.68;;;1.70;;
39896;SDS011;25567;48.276;14.242;2024-03-25T03:08:44;4.22;;;1.90;;
39896;SDS011;25567;48.276;14.242;2024-03-25T03:11:10;8.93;;;1.98;;
39896;SDS011;25567;48.276;14.242;2024-03-25T03:13:36;9.15;;;1.48;;
39896;SDS011;25567;48.276;14.242;2024-03-25T03:16:02;5.32;;;2.00;;
39896;SDS011;25567;48.276;14.242;2024-03-25T03:18:28;2.97;;;1.48;;
39896;SDS011;25567;48.276;14.242;2024-03-25T03:20:54;3.50;;;1.30;;
39896;SDS011;25567;48.276;14.242;2024-03-25T03:23:22;4.70;;;1.73;;
39896;SDS011;25567;48.276;14.242;2024-03-25T03:25:48;7.25;;;1.83;;
39896;SDS011;25567;48.276;14.242;2024-03-25T03:28:14;5.05;;;1.58;;
39896;SDS011;25567;48.276;14.242;2024-03-25T03:30:41;4.68;;;1.70;;
39896;SDS011;25567;48.276;14.242;2024-03-25T03:33:07;3.20;;;1.75;;
39896;SDS011;25567;48.276;14.242;2024-03-25T03:35:33;4.20;;;1.73;;
39896;SDS011;25567;48.276;14.242;2024-03-25T03:37:59;6.07;;;1.80;;
39896;SDS011;25567;48.276;14.242;2024-03-25T03:40:25;8.38;;;1.92;;
39896;SDS011;25567;48.276;14.242;2024-03-25T03:42:51;3.20;;;1.60;;
39896;SDS011;25567;48.276;14.242;2024-03-25T03:47:43;4.57;;;2.03;;
39896;SDS011;25567;48.276;14.242;2024-03-25T03:50:09;4.28;;;1.90;;
39896;SDS011;25567;48.276;14.242;2024-03-25T03:52:35;6.30;;;1.67;;
39896;SDS011;25567;48.276;14.242;2024-03-25T03:55:01;5.63;;;2.20;;
39896;SDS011;25567;48.276;14.242;2024-03-25T03:57:27;10.75;;;2.70;;
39896;SDS011;25567;48.276;14.242;2024-03-25T03:59:53;4.13;;;2.00;;
39896;SDS011;25567;48.276;14.242;2024-03-25T04:02:20;4.75;;;1.92;;
39896;SDS011;25567;48.276;14.242;2024-03-25T04:04:46;4.50;;;1.70;;
39896;SDS011;25567;48.276;14.242;2024-03-25T04:07:12;5.85;;;2.10;;
39896;SDS011;25567;48.276;14.242;2024-03-25T04:09:37;7.55;;;2.00;;
39896;SDS011;25567;48.276;14.242;2024-03-25T04:12:04;6.03;;;2.10;;
39896;SDS011;25567;48.276;14.242;2024-03-25T04:14:31;9.98;;;2.47;;
39896;SDS011;25567;48.276;14.242;2024-03-25T04:16:57;3.95;;;2.00;;
39896;SDS011;25567;48.276;14.242;2024-03-25T04:19:24;4.40;;;1.90;;
39896;SDS011;25567;48.276;14.242;2024-03-25T04:21:51;6.85;;;2.00;;
39896;SDS011;25567;48.276;14.242;2024-03-25T04:24:18;8.48;;;2.38;;
39896;SDS011;25567;48.276;14.242;2024-03-25T04:26:44;7.90;;;1.95;;
39896;SDS011;25567;48.276;14.242;2024-03-25T04:29:11;4.03;;;1.80;;
39896;SDS011;25567;48.276;14.242;2024-03-25T04:31:37;4.65;;;2.10;;
39896;SDS011;25567;48.276;14.242;2024-03-25T04:34:03;4.72;;;2.22;;
39896;SDS011;25567;48.276;14.242;2024-03-25T04:36:30;5.88;;;2.47;;
39896;SDS011;25567;48.276;14.242;2024-03-25T04:38:56;4.97;;;2.10;;
39896;SDS011;25567;48.276;14.242;2024-03-25T04:41:22;5.97;;;2.17;;
39896;SDS011;25567;48.276;14.242;2024-03-25T04:43:49;7.95;;;2.33;;
39896;SDS011;25567;48.276;14.242;2024-03-25T04:46:15;6.50;;;2.03;;
39896;SDS011;25567;48.276;14.242;2024-03-25T04:51:06;6.00;;;2.60;;
39896;SDS011;25567;48.276;14.242;2024-03-25T04:53:34;5.35;;;2.53;;
39896;SDS011;25567;48.276;14.242;2024-03-25T04:56:00;4.78;;;1.92;;
39896;SDS011;25567;48.276;14.242;2024-03-25T04:58:26;14.23;;;4.93;;
39896;SDS011;25567;48.276;14.242;2024-03-25T05:00:53;40.15;;;15.35;;
39896;SDS011;25567;48.276;14.242;2024-03-25T05:03:19;33.65;;;11.30;;
39896;SDS011;25567;48.276;14.242;2024-03-25T05:05:45;16.67;;;5.88;;
39896;SDS011;25567;48.276;14.242;2024-03-25T05:10:36;5.30;;;2.92;;
39896;SDS011;25567;48.276;14.242;2024-03-25T05:15:27;5.50;;;2.28;;
39896;SDS011;25567;48.276;14.242;2024-03-25T05:17:53;6.65;;;2.58;;
39896;SDS011;25567;48.276;14.242;2024-03-25T05:20:18;5.70;;;1.95;;
39896;SDS011;25567;48.276;14.242;2024-03-25T05:25:10;6.93;;;2.30;;
39896;SDS011;25567;48.276;14.242;2024-03-25T05:30:01;4.50;;;2.10;;
39896;SDS011;25567;48.276;14.242;2024-03-25T05:32:27;4.05;;;1.98;;
39896;SDS011;25567;48.276;14.242;2024-03-25T05:34:53;5.72;;;1.80;;
39896;SDS011;25567;48.276;14.242;2024-03-25T05:37:19;10.75;;;2.60;;
39896;SDS011;25567;48.276;14.242;2024-03-25T05:39:44;5.28;;;2.00;;
39896;SDS011;25567;48.276;14.242;2024-03-25T05:42:10;6.40;;;2.17;;
39896;SDS011;25567;48.276;14.242;2024-03-25T05:47:02;7.38;;;2.30;;
39896;SDS011;25567;48.276;14.242;2024-03-25T05:49:28;6.25;;;1.73;;
39896;SDS011;25567;48.276;14.242;2024-03-25T05:51:53;5.25;;;2.08;;
39896;SDS011;25567;48.276;14.242;2024-03-25T05:54:19;5.32;;;2.40;;
39896;SDS011;25567;48.276;14.242;2024-03-25T05:59:10;7.63;;;2.58;;
39896;SDS011;25567;48.276;14.242;2024-03-25T06:01:36;6.30;;;2.30;;
39896;SDS011;25567;48.276;14.242;2024-03-25T06:04:03;7.97;;;2.67;;
39896;SDS011;25567;48.276;14.242;2024-03-25T06:06:29;4.15;;;2.20;;
39896;SDS011;25567;48.276;14.242;2024-03-25T06:08:54;5.65;;;2.22;;
39896;SDS011;25567;48.276;14.242;2024-03-25T06:13:46;4.72;;;2.17;;
39896;SDS011;25567;48.276;14.242;2024-03-25T06:16:13;5.70;;;1.95;;
39896;SDS011;25567;48.276;14.242;2024-03-25T06:18:39;4.68;;;2.22;;
39896;SDS011;25567;48.276;14.242;2024-03-25T06:21:05;6.70;;;2.45;;
39896;SDS011;25567;48.276;14.242;2024-03-25T06:23:31;6.10;;;2.70;;
39896;SDS011;25567;48.276;14.242;2024-03-25T06:25:57;7.85;;;2.40;;
39896;SDS011;25567;48.276;14.242;2024-03-25T06:28:23;5.25;;;2.08;;
39896;SDS011;25567;48.276;14.242;2024-03-25T06:33:35;5.38;;;1.92;;
39896;SDS011;25567;48.276;14.242;2024-03-25T06:36:21;7.03;;;2.00;;
39896;SDS011;25567;48.276;14.242;2024-03-25T06:38:47;9.88;;;2.20;;
39896;SDS011;25567;48.276;14.242;2024-03-25T06:41:13;5.82;;;2.40;;
39896;SDS011;25567;48.276;14.242;2024-03-25T06:43:39;8.45;;;2.28;;
39896;SDS011;25567;48.276;14.242;2024-03-25T06:46:05;4.80;;;2.00;;
39896;SDS011;25567;48.276;14.242;2024-03-25T06:48:31;4.65;;;1.90;;
39896;SDS011;25567;48.276;14.242;2024-03-25T06:50:59;5.07;;;2.10;;
39896;SDS011;25567;48.276;14.242;2024-03-25T06:53:25;4.30;;;2.22;;
39896;SDS011;25567;48.276;14.242;2024-03-25T06:56:00;3.90;;;2.28;;
39896;SDS011;25567;48.276;14.242;2024-03-25T06:58:27;3.67;;;1.98;;
39896;SDS011;25567;48.276;14.242;2024-03-25T07:00:53;10.10;;;2.95;;
39896;SDS011;25567;48.276;14.242;2024-03-25T07:03:21;7.00;;;2.25;;
39896;SDS011;25567;48.276;14.242;2024-03-25T07:05:48;6.75;;;2.00;;
39896;SDS011;25567;48.276;14.242;2024-03-25T07:08:17;7.63;;;2.65;;
39896;SDS011;25567;48.276;14.242;2024-03-25T07:10:45;8.95;;;2.92;;
39896;SDS011;25567;48.276;14.242;2024-03-25T07:13:11;4.97;;;2.42;;
39896;SDS011;25567;48.276;14.242;2024-03-25T07:15:38;8.70;;;2.45;;
39896;SDS011;25567;48.276;14.242;2024-03-25T07:18:04;4.10;;;2.38;;
39896;SDS011;25567;48.276;14.242;2024-03-25T07:20:31;7.72;;;2.35;;
39896;SDS011;25567;48.276;14.242;2024-03-25T07:22:57;10.73;;;2.50;;
39896;SDS011;25567;48.276;14.242;2024-03-25T07:25:23;4.63;;;2.13;;
39896;SDS011;25567;48.276;14.242;2024-03-25T07:27:50;22.88;;;3.40;;
39896;SDS011;25567;48.276;14.242;2024-03-25T07:30:16;6.75;;;2.50;;
39896;SDS011;25567;48.276;14.242;2024-03-25T07:32:42;12.00;;;3.13;;
39896;SDS011;25567;48.276;14.242;2024-03-25T07:35:11;6.32;;;2.75;;
39896;SDS011;25567;48.276;14.242;2024-03-25T07:37:36;11.63;;;2.78;;
39896;SDS011;25567;48.276;14.242;2024-03-25T07:40:02;10.82;;;2.50;;
39896;SDS011;25567;48.276;14.242;2024-03-25T07:42:29;7.32;;;2.60;;
39896;SDS011;25567;48.276;14.242;2024-03-25T07:44:55;10.75;;;3.03;;
39896;SDS011;25567;48.276;14.242;2024-03-25T07:47:21;7.32;;;3.20;;
39896;SDS011;25567;48.276;14.242;2024-03-25T07:49:47;8.60;;;2.95;;
39896;SDS011;25567;48.276;14.242;2024-03-25T07:54:39;12.07;;;2.50;;
39896;SDS011;25567;48.276;14.242;2024-03-25T07:57:05;9.25;;;2.88;;
39896;SDS011;25567;48.276;14.242;2024-03-25T07:59:31;10.20;;;2.50;;
39896;SDS011;25567;48.276;14.242;2024-03-25T08:01:57;9.85;;;2.80;;
39896;SDS011;25567;48.276;14.242;2024-03-25T08:06:48;5.28;;;2.53;;
39896;SDS011;25567;48.276;14.242;2024-03-25T08:09:14;9.82;;;2.78;;
39896;SDS011;25567;48.276;14.242;2024-03-25T08:11:42;9.30;;;3.00;;
39896;SDS011;25567;48.276;14.242;2024-03-25T08:14:10;4.60;;;2.60;;
39896;SDS011;25567;48.276;14.242;2024-03-25T08:16:36;6.50;;;3.00;;
39896;SDS011;25567;48.276;14.242;2024-03-25T08:19:03;5.82;;;2.75;;
39896;SDS011;25567;48.276;14.242;2024-03-25T08:21:29;5.88;;;2.80;;
39896;SDS011;25567;48.276;14.242;2024-03-25T08:23:55;6.00;;;2.78;;
39896;SDS011;25567;48.276;14.242;2024-03-25T08:26:20;5.32;;;2.28;;
39896;SDS011;25567;48.276;14.242;2024-03-25T08:31:14;9.07;;;2.70;;
39896;SDS011;25567;48.276;14.242;2024-03-25T08:33:40;11.93;;;3.13;;
39896;SDS011;25567;48.276;14.242;2024-03-25T08:36:06;12.02;;;3.25;;
39896;SDS011;25567;48.276;14.242;2024-03-25T08:38:32;8.50;;;2.78;;
39896;SDS011;25567;48.276;14.242;2024-03-25T08:40:58;6.53;;;2.63;;
39896;SDS011;25567;48.276;14.242;2024-03-25T08:43:23;6.50;;;2.95;;
39896;SDS011;25567;48.276;14.242;2024-03-25T08:45:49;7.80;;;2.95;;
39896;SDS011;25567;48.276;14.242;2024-03-25T08:48:15;7.78;;;2.97;;
39896;SDS011;25567;48.276;14.242;2024-03-25T08:50:41;8.68;;;2.90;;
39896;SDS011;25567;48.276;14.242;2024-03-25T08:53:07;8.75;;;3.03;;
39896;SDS011;25567;48.276;14.242;2024-03-25T08:57:59;9.30;;;3.15;;
39896;SDS011;25567;48.276;14.242;2024-03-25T09:00:26;5.85;;;2.85;;
39896;SDS011;25567;48.276;14.242;2024-03-25T09:02:55;6.47;;;2.88;;
39896;SDS011;25567;48.276;14.242;2024-03-25T09:05:21;10.98;;;3.50;;
39896;SDS011;25567;48.276;14.242;2024-03-25T09:07:50;11.07;;;3.03;;
39896;SDS011;25567;48.276;14.242;2024-03-25T09:10:20;10.68;;;2.90;;
39896;SDS011;25567;48.276;14.242;2024-03-25T09:13:04;7.60;;;2.80;;
39896;SDS011;25567;48.276;14.242;2024-03-25T09:15:30;11.02;;;2.80;;
39896;SDS011;25567;48.276;14.242;2024-03-25T09:17:56;7.00;;;2.67;;
39896;SDS011;25567;48.276;14.242;2024-03-25T09:22:48;13.23;;;2.95;;
39896;SDS011;25567;48.276;14.242;2024-03-25T09:25:17;8.20;;;2.78;;
39896;SDS011;25567;48.276;14.242;2024-03-25T09:27:49;7.63;;;3.15;;
39896;SDS011;25567;48.276;14.242;2024-03-25T09:30:16;7.28;;;2.88;;
39896;SDS011;25567;48.276;14.242;2024-03-25T09:32:44;11.85;;;3.35;;
39896;SDS011;25567;48.276;14.242;2024-03-25T09:35:10;8.85;;;3.03;;
39896;SDS011;25567;48.276;14.242;2024-03-25T09:37:36;11.82;;;2.88;;
39896;SDS011;25567;48.276;14.242;2024-03-25T09:40:03;13.13;;;3.08;;
39896;SDS011;25567;48.276;14.242;2024-03-25T09:42:55;8.52;;;2.58;;
39896;SDS011;25567;48.276;14.242;2024-03-25T09:45:21;8.88;;;2.67;;
39896;SDS011;25567;48.276;14.242;2024-03-25T09:47:53;9.52;;;3.20;;
39896;SDS011;25567;48.276;14.242;2024-03-25T09:50:20;8.32;;;2.75;;
39896;SDS011;25567;48.276;14.242;2024-03-25T09:52:47;8.77;;;2.53;;
39896;SDS011;25567;48.276;14.242;2024-03-25T09:55:13;6.38;;;2.65;;
39896;SDS011;25567;48.276;14.242;2024-03-25T09:57:40;10.55;;;2.53;;
39896;SDS011;25567;48.276;14.242;2024-03-25T10:00:07;7.30;;;2.60;;
39896;SDS011;25567;48.276;14.242;2024-03-25T10:02:34;8.23;;;2.95;;
39896;SDS011;25567;48.276;14.242;2024-03-25T10:05:02;9.63;;;2.92;;
39896;SDS011;25567;48.276;14.242;2024-03-25T10:07:29;7.70;;;2.63;;
39896;SDS011;25567;48.276;14.242;2024-03-25T10:09:54;4.78;;;2.40;;
39896;SDS011;25567;48.276;14.242;2024-03-25T10:12:21;8.18;;;2.63;;
39896;SDS011;25567;48.276;14.242;2024-03-25T10:14:47;7.03;;;2.55;;
39896;SDS011;25567;48.276;14.242;2024-03-25T10:19:38;5.82;;;2.30;;
39896;SDS011;25567;48.276;14.242;2024-03-25T10:22:04;7.07;;;2.30;;
39896;SDS011;25567;48.276;14.242;2024-03-25T10:27:09;7.20;;;2.70;;
39896;SDS011;25567;48.276;14.242;2024-03-25T10:29:37;5.88;;;2.17;;
39896;SDS011;25567;48.276;14.242;2024-03-25T10:32:03;6.25;;;2.50;;
39896;SDS011;25567;48.276;14.242;2024-03-25T10:34:29;8.45;;;2.58;;
39896;SDS011;25567;48.276;14.242;2024-03-25T10:36:57;4.30;;;2.33;;
39896;SDS011;25567;48.276;14.242;2024-03-25T10:39:27;4.38;;;2.00;;
39896;SDS011;25567;48.276;14.242;2024-03-25T10:41:56;4.82;;;2.28;;
39896;SDS011;25567;48.276;14.242;2024-03-25T10:44:23;6.97;;;2.30;;
39896;SDS011;25567;48.276;14.242;2024-03-25T10:46:59;4.88;;;2.38;;
39896;SDS011;25567;48.276;14.242;2024-03-25T10:51:52;7.43;;;2.15;;
39896;SDS011;25567;48.276;14.242;2024-03-25T10:54:19;5.05;;;2.17;;
39896;SDS011;25567;48.276;14.242;2024-03-25T10:56:47;5.25;;;2.30;;
39896;SDS011;25567;48.276;14.242;2024-03-25T10:59:16;8.40;;;3.65;;
39896;SDS011;25567;48.276;14.242;2024-03-25T11:01:43;6.45;;;2.35;;
39896;SDS011;25567;48.276;14.242;2024-03-25T11:04:09;3.75;;;1.98;;
39896;SDS011;25567;48.276;14.242;2024-03-25T11:06:36;5.50;;;2.30;;
39896;SDS011;25567;48.276;14.242;2024-03-25T11:09:02;7.15;;;2.25;;
39896;SDS011;25567;48.276;14.242;2024-03-25T11:11:31;6.35;;;2.53;;
39896;SDS011;25567;48.276;14.242;2024-03-25T11:13:58;4.47;;;2.10;;
39896;SDS011;25567;48.276;14.242;2024-03-25T11:16:30;4.07;;;2.10;;
39896;SDS011;25567;48.276;14.242;2024-03-25T11:19:01;4.03;;;2.00;;
39896;SDS011;25567;48.276;14.242;2024-03-25T11:21:28;7.28;;;2.17;;
39896;SDS011;25567;48.276;14.242;2024-03-25T11:23:53;5.05;;;2.20;;
39896;SDS011;25567;48.276;14.242;2024-03-25T11:26:25;4.25;;;2.25;;
39896;SDS011;25567;48.276;14.242;2024-03-25T11:28:55;5.47;;;2.08;;
39896;SDS011;25567;48.276;14.242;2024-03-25T11:31:22;9.68;;;2.40;;
39896;SDS011;25567;48.276;14.242;2024-03-25T11:33:51;6.78;;;2.67;;
39896;SDS011;25567;48.276;14.242;2024-03-25T11:36:17;8.00;;;2.38;;
39896;SDS011;25567;48.276;14.242;2024-03-25T11:38:44;6.55;;;1.88;;
39896;SDS011;25567;48.276;14.242;2024-03-25T11:41:12;6.30;;;2.10;;
39896;SDS011;25567;48.276;14.242;2024-03-25T11:43:38;5.65;;;2.10;;
39896;SDS011;25567;48.276;14.242;2024-03-25T11:46:04;6.88;;;2.63;;
39896;SDS011;25567;48.276;14.242;2024-03-25T11:48:31;8.45;;;2.42;;
39896;SDS011;25567;48.276;14.242;2024-03-25T11:50:57;3.88;;;1.90;;
39896;SDS011;25567;48.276;14.242;2024-03-25T11:53:24;3.95;;;2.50;;
39896;SDS011;25567;48.276;14.242;2024-03-25T11:55:49;4.47;;;1.90;;
39896;SDS011;25567;48.276;14.242;2024-03-25T11:58:16;4.28;;;2.03;;
39896;SDS011;25567;48.276;14.242;2024-03-25T12:00:46;4.00;;;1.95;;
39896;SDS011;25567;48.276;14.242;2024-03-25T12:03:14;6.70;;;2.67;;
39896;SDS011;25567;48.276;14.242;2024-03-25T12:05:41;5.30;;;2.13;;
39896;SDS011;25567;48.276;14.242;2024-03-25T12:08:08;4.38;;;2.20;;
39896;SDS011;25567;48.276;14.242;2024-03-25T12:10:35;3.85;;;1.80;;
39896;SDS011;25567;48.276;14.242;2024-03-25T12:13:20;4.13;;;2.05;;
39896;SDS011;25567;48.276;14.242;2024-03-25T12:15:46;2.67;;;1.70;;
39896;SDS011;25567;48.276;14.242;2024-03-25T12:18:13;3.08;;;1.35;;
39896;SDS011;25567;48.276;14.242;2024-03-25T12:20:39;2.75;;;1.50;;
39896;SDS011;25567;48.276;14.242;2024-03-25T12:23:06;4.28;;;1.95;;
39896;SDS011;25567;48.276;14.242;2024-03-25T12:25:32;4.72;;;1.90;;
39896;SDS011;25567;48.276;14.242;2024-03-25T12:27:58;4.90;;;2.00;;
39896;SDS011;25567;48.276;14.242;2024-03-25T12:30:24;6.75;;;1.75;;
39896;SDS011;25567;48.276;14.242;2024-03-25T12:32:51;3.72;;;1.92;;
39896;SDS011;25567;48.276;14.242;2024-03-25T12:35:17;7.13;;;2.10;;
39896;SDS011;25567;48.276;14.242;2024-03-25T12:37:45;3.78;;;2.17;;
39896;SDS011;25567;48.276;14.242;2024-03-25T12:40:12;4.13;;;2.10;;
39896;SDS011;25567;48.276;14.242;2024-03-25T12:42:53;5.40;;;1.75;;
39896;SDS011;25567;48.276;14.242;2024-03-25T12:45:20;3.70;;;1.83;;
39896;SDS011;25567;48.276;14.242;2024-03-25T12:47:46;3.72;;;1.55;;
39896;SDS011;25567;48.276;14.242;2024-03-25T12:50:12;2.13;;;1.50;;
39896;SDS011;25567;48.276;14.242;2024-03-25T12:52:37;3.17;;;1.88;;
39896;SDS011;25567;48.276;14.242;2024-03-25T12:55:03;5.03;;;1.75;;
39896;SDS011;25567;48.276;14.242;2024-03-25T12:57:29;4.63;;;1.77;;
39896;SDS011;25567;48.276;14.242;2024-03-25T12:59:55;4.65;;;1.80;;
39896;SDS011;25567;48.276;14.242;2024-03-25T13:02:21;3.20;;;1.60;;
39896;SDS011;25567;48.276;14.242;2024-03-25T13:04:47;3.65;;;1.95;;
39896;SDS011;25567;48.276;14.242;2024-03-25T13:07:12;3.88;;;1.63;;
39896;SDS011;25567;48.276;14.242;2024-03-25T13:09:38;3.80;;;1.83;;
39896;SDS011;25567;48.276;14.242;2024-03-25T13:12:04;5.55;;;1.88;;
39896;SDS011;25567;48.276;14.242;2024-03-25T13:14:30;3.92;;;1.90;;
39896;SDS011;25567;48.276;14.242;2024-03-25T13:16:56;4.20;;;1.70;;
39896;SDS011;25567;48.276;14.242;2024-03-25T13:19:22;3.53;;;1.60;;
39896;SDS011;25567;48.276;14.242;2024-03-25T13:21:48;4.15;;;2.05;;
39896;SDS011;25567;48.276;14.242;2024-03-25T13:24:14;3.97;;;1.80;;
39896;SDS011;25567;48.276;14.242;2024-03-25T13:26:40;6.15;;;1.83;;
39896;SDS011;25567;48.276;14.242;2024-03-25T13:29:06;2.78;;;1.45;;
39896;SDS011;25567;48.276;14.242;2024-03-25T13:31:33;3.45;;;1.52;;
39896;SDS011;25567;48.276;14.242;2024-03-25T13:33:59;5.53;;;1.90;;
39896;SDS011;25567;48.276;14.242;2024-03-25T13:36:25;4.65;;;2.00;;
39896;SDS011;25567;48.276;14.242;2024-03-25T13:38:51;3.42;;;1.73;;
39896;SDS011;25567;48.276;14.242;2024-03-25T13:41:17;4.15;;;1.90;;
39896;SDS011;25567;48.276;14.242;2024-03-25T13:43:47;4.35;;;1.60;;
39896;SDS011;25567;48.276;14.242;2024-03-25T13:46:13;4.45;;;2.10;;
39896;SDS011;25567;48.276;14.242;2024-03-25T13:48:40;4.72;;;1.75;;
39896;SDS011;25567;48.276;14.242;2024-03-25T13:51:05;9.80;;;2.20;;
39896;SDS011;25567;48.276;14.242;2024-03-25T13:53:31;3.42;;;1.77;;
39896;SDS011;25567;48.276;14.242;2024-03-25T13:55:58;5.53;;;1.80;;
39896;SDS011;25567;48.276;14.242;2024-03-25T13:58:25;5.03;;;1.85;;
39896;SDS011;25567;48.276;14.242;2024-03-25T14:00:51;7.00;;;2.05;;
39896;SDS011;25567;48.276;14.242;2024-03-25T14:03:17;3.58;;;1.60;;
39896;SDS011;25567;48.276;14.242;2024-03-25T14:05:44;3.40;;;1.77;;
39896;SDS011;25567;48.276;14.242;2024-03-25T14:08:10;3.53;;;1.75;;
39896;SDS011;25567;48.276;14.242;2024-03-25T14:10:35;4.28;;;1.60;;
39896;SDS011;25567;48.276;14.242;2024-03-25T14:13:01;3.95;;;2.05;;
39896;SDS011;25567;48.276;14.242;2024-03-25T14:15:29;2.40;;;1.30;;
39896;SDS011;25567;48.276;14.242;2024-03-25T14:17:55;2.75;;;1.55;;
39896;SDS011;25567;48.276;14.242;2024-03-25T14:20:20;4.53;;;2.00;;
39896;SDS011;25567;48.276;14.242;2024-03-25T14:22:47;3.28;;;1.77;;
39896;SDS011;25567;48.276;14.242;2024-03-25T14:25:13;2.33;;;1.58;;
39896;SDS011;25567;48.276;14.242;2024-03-25T14:27:40;2.78;;;1.50;;
39896;SDS011;25567;48.276;14.242;2024-03-25T14:30:06;5.30;;;1.83;;
39896;SDS011;25567;48.276;14.242;2024-03-25T14:32:35;5.07;;;1.52;;
39896;SDS011;25567;48.276;14.242;2024-03-25T14:35:04;3.35;;;1.60;;
39896;SDS011;25567;48.276;14.242;2024-03-25T14:37:32;5.50;;;2.10;;
39896;SDS011;25567;48.276;14.242;2024-03-25T14:39:58;4.07;;;1.70;;
39896;SDS011;25567;48.276;14.242;2024-03-25T14:42:24;1.55;;;1.35;;
39896;SDS011;25567;48.276;14.242;2024-03-25T14:44:50;2.97;;;1.20;;
39896;SDS011;25567;48.276;14.242;2024-03-25T14:47:16;3.63;;;1.35;;
39896;SDS011;25567;48.276;14.242;2024-03-25T14:49:42;2.45;;;1.63;;
39896;SDS011;25567;48.276;14.242;2024-03-25T14:52:07;2.83;;;1.63;;
39896;SDS011;25567;48.276;14.242;2024-03-25T14:54:33;2.20;;;1.30;;
39896;SDS011;25567;48.276;14.242;2024-03-25T14:57:00;6.68;;;1.63;;
39896;SDS011;25567;48.276;14.242;2024-03-25T14:59:27;7.95;;;1.88;;
39896;SDS011;25567;48.276;14.242;2024-03-25T15:01:53;5.97;;;1.73;;
39896;SDS011;25567;48.276;14.242;2024-03-25T15:04:19;4.07;;;1.70;;
39896;SDS011;25567;48.276;14.242;2024-03-25T15:06:45;3.15;;;1.65;;
39896;SDS011;25567;48.276;14.242;2024-03-25T15:09:10;6.70;;;1.90;;
39896;SDS011;25567;48.276;14.242;2024-03-25T15:11:36;3.90;;;1.63;;
39896;SDS011;25567;48.276;14.242;2024-03-25T15:14:03;3.40;;;1.52;;
39896;SDS011;25567;48.276;14.242;2024-03-25T15:16:29;8.05;;;1.60;;
39896;SDS011;25567;48.276;14.242;2024-03-25T15:18:56;7.05;;;1.80;;
39896;SDS011;25567;48.276;14.242;2024-03-25T15:21:21;3.75;;;1.27;;
39896;SDS011;25567;48.276;14.242;2024-03-25T15:23:47;2.55;;;1.30;;
39896;SDS011;25567;48.276;14.242;2024-03-25T15:26:13;3.38;;;1.60;;